KANW/ANW METAR and TAF weather

Enter ICAO airport designator
Station Type Date Time Source
KANW METAR 2018/04/21 20:35 UTC NOAA

KANW 212035Z AUTO 10006KT 10SM BKN012 BKN016 OVC070 06/05 A3025 RMK AO2 P0001 T00620046


Station Type Date Time Source
KANW Decoded METAR 2018/04/21 20:35 UTC NOAA

Ainsworth Municipal, NE, United States (KANW) 42-35N 100-00W
Apr 21, 2018 - 04:35 PM EDT / 2018.04.21 2035 UTC
Wind: from the E (100 degrees) at 7 MPH (6 KT):0
Visibility: 10 mile(s):0
Sky conditions: overcast
Precipitation last hour: 0.01 inches
Temperature: 43.2 F (6.2 C)
Dew Point: 40.3 F (4.6 C)
Relative Humidity: 89%
Pressure (altimeter): 30.25 in. Hg (1024 hPa)
ob: KANW 212035Z AUTO 10006KT 10SM BKN012 BKN016 OVC070 06/05 A3025 RMK AO2 P0001 T00620046
cycle: 20

Station Type Date Time Source
KANW TAF UTC NOAA

Error!


Example: see airport list